KJAX Airport (Jacksonville Intl) Information

FAA: JAX - ICAO: KJAX

KJAX Airport Location

State Florida
County Duval
City Jacksonville
KJAX Airport is 9 miles north of Jacksonville, FL.
Latitude 30-29-38.5640N
Longitude 081-41-16.2480W
Elevation 29ft

KJAX Airport METARs

METAR KJAX 240956Z 36004KT 10SM CLR 16/14 A2997 RMK AO2 SLP151 T01610144
Altimeter 29.97"
Temperature 16.1°C (61.0°F)
Wind 360° at 4KT
Clouds Skies are clear.
Visibility 10.0mi
Time observed: 2021-09-24T09:56:00Z

KJAX Airport Details

Status Operational
Activation November 1968
Ownership Public
Usage Public
Chart JACKSONVILLE
ATC on-site Yes
Beacon schedule sunset-sunrise
Beacon color clear green

KJAX Airport Contacts

Owner JACKSONVILLE INTL AIRPORT
Owner address 14201 PECAN PARK ROAD, JACKSONVILLE, FL 32218
Owner phone 904-741-2000
Manager KEITH TREPANIER
Manager address MB10-513 1216 2ND ST SW, ROCHESTER, MN 55905
Manager phone (507) 255-6156

KJAX Airport (Jacksonville Intl) Radio Frequencies

KJAX (Airport) Radio Frequencies

UNICOM 122.95
Common traffic advisory frequency (CTAF) N/A